<?xml version="1.0" encoding="UTF-8" standalone="no" ?>
<gpx xmlns="http://www.topografix.com/GPX/1/1" xmlns:xsi="http://www.w3.org/2001/XMLSchema-instance" xsi:schemaLocation="http://www.topografix.com/GPX/1/1 http://www.topografix.com/GPX/1/1/gpx.xsd" version="1.1" creator="VisuGPX - https://www.visugpx.com">
  <metadata>
    <name>VacancesDricouZoe</name>
  </metadata>
  <trk>
    <name><![CDATA[Journal actif: 2021-07-07 14:12]]></name>
    <trkseg>
      <trkpt lat="43.77468" lon="-1.40714">
        <ele>-11.4</ele>
        <time>2021-07-07T16:12:57Z</time>
      </trkpt>
      <trkpt lat="43.77469" lon="-1.40704">
        <ele>-11.4</ele>
        <time>2021-07-07T16:13:16Z</time>
      </trkpt>
      <trkpt lat="43.77472" lon="-1.40624">
        <ele>-13.32</ele>
        <time>2021-07-07T16:13:24Z</time>
      </trkpt>
      <trkpt lat="43.77474" lon="-1.40545">
        <ele>-14.28</ele>
        <time>2021-07-07T16:13:29Z</time>
      </trkpt>
      <trkpt lat="43.77472" lon="-1.40531">
        <ele>-13.8</ele>
        <time>2021-07-07T16:13:30Z</time>
      </trkpt>
      <trkpt lat="43.77471" lon="-1.40518">
        <ele>-13.8</ele>
        <time>2021-07-07T16:13:31Z</time>
      </trkpt>
      <trkpt lat="43.77469" lon="-1.40504">
        <ele>-13.32</ele>
        <time>2021-07-07T16:13:32Z</time>
      </trkpt>
      <trkpt lat="43.77465" lon="-1.4049">
        <ele>-12.84</ele>
        <time>2021-07-07T16:13:33Z</time>
      </trkpt>
      <trkpt lat="43.77412" lon="-1.40359">
        <ele>-14.76</ele>
        <time>2021-07-07T16:13:43Z</time>
      </trkpt>
      <trkpt lat="43.77406" lon="-1.4035">
        <ele>-15.24</ele>
        <time>2021-07-07T16:13:44Z</time>
      </trkpt>
      <trkpt lat="43.77401" lon="-1.40343">
        <ele>-15.72</ele>
        <time>2021-07-07T16:13:45Z</time>
      </trkpt>
      <trkpt lat="43.77395" lon="-1.40337">
        <ele>-16.21</ele>
        <time>2021-07-07T16:13:46Z</time>
      </trkpt>
      <trkpt lat="43.77389" lon="-1.4033">
        <ele>-17.17</ele>
        <time>2021-07-07T16:13:47Z</time>
      </trkpt>
      <trkpt lat="43.77382" lon="-1.40322">
        <ele>-17.65</ele>
        <time>2021-07-07T16:13:48Z</time>
      </trkpt>
      <trkpt lat="43.77368" lon="-1.40305">
        <ele>-18.13</ele>
        <time>2021-07-07T16:13:49Z</time>
      </trkpt>
      <trkpt lat="43.77368" lon="-1.40305">
        <ele>-18.61</ele>
        <time>2021-07-07T16:13:50Z</time>
      </trkpt>
      <trkpt lat="43.77365" lon="-1.40295">
        <ele>-18.61</ele>
        <time>2021-07-07T16:13:51Z</time>
      </trkpt>
      <trkpt lat="43.77361" lon="-1.40284">
        <ele>-18.61</ele>
        <time>2021-07-07T16:13:52Z</time>
      </trkpt>
      <trkpt lat="43.77357" lon="-1.40275">
        <ele>-19.09</ele>
        <time>2021-07-07T16:13:53Z</time>
      </trkpt>
      <trkpt lat="43.77353" lon="-1.40265">
        <ele>-18.61</ele>
        <time>2021-07-07T16:13:54Z</time>
      </trkpt>
      <trkpt lat="43.77344" lon="-1.4025">
        <ele>-18.13</ele>
        <time>2021-07-07T16:13:56Z</time>
      </trkpt>
      <trkpt lat="43.77342" lon="-1.40241">
        <ele>-18.13</ele>
        <time>2021-07-07T16:13:57Z</time>
      </trkpt>
      <trkpt lat="43.77344" lon="-1.40232">
        <ele>-18.61</ele>
        <time>2021-07-07T16:13:58Z</time>
      </trkpt>
      <trkpt lat="43.77348" lon="-1.40224">
        <ele>-18.61</ele>
        <time>2021-07-07T16:13:59Z</time>
      </trkpt>
      <trkpt lat="43.77351" lon="-1.40214">
        <ele>-18.61</ele>
        <time>2021-07-07T16:14:00Z</time>
      </trkpt>
      <trkpt lat="43.77353" lon="-1.40202">
        <ele>-18.61</ele>
        <time>2021-07-07T16:14:01Z</time>
      </trkpt>
      <trkpt lat="43.77355" lon="-1.40191">
        <ele>-18.13</ele>
        <time>2021-07-07T16:14:02Z</time>
      </trkpt>
      <trkpt lat="43.77356" lon="-1.40163">
        <ele>-17.65</ele>
        <time>2021-07-07T16:14:03Z</time>
      </trkpt>
      <trkpt lat="43.77356" lon="-1.40163">
        <ele>-17.65</ele>
        <time>2021-07-07T16:14:04Z</time>
      </trkpt>
      <trkpt lat="43.77353" lon="-1.401">
        <ele>-14.76</ele>
        <time>2021-07-07T16:14:08Z</time>
      </trkpt>
      <trkpt lat="43.77381" lon="-1.39948">
        <ele>-15.72</ele>
        <time>2021-07-07T16:14:18Z</time>
      </trkpt>
      <trkpt lat="43.77385" lon="-1.39932">
        <ele>-15.24</ele>
        <time>2021-07-07T16:14:19Z</time>
      </trkpt>
      <trkpt lat="43.77434" lon="-1.39821">
        <ele>-14.28</ele>
        <time>2021-07-07T16:14:27Z</time>
      </trkpt>
      <trkpt lat="43.77436" lon="-1.39807">
        <ele>-14.28</ele>
        <time>2021-07-07T16:14:28Z</time>
      </trkpt>
      <trkpt lat="43.77438" lon="-1.39797">
        <ele>-14.28</ele>
        <time>2021-07-07T16:14:29Z</time>
      </trkpt>
      <trkpt lat="43.77437" lon="-1.39783">
        <ele>-13.8</ele>
        <time>2021-07-07T16:14:30Z</time>
      </trkpt>
      <trkpt lat="43.77436" lon="-1.39769">
        <ele>-13.8</ele>
        <time>2021-07-07T16:14:31Z</time>
      </trkpt>
      <trkpt lat="43.77435" lon="-1.39755">
        <ele>-13.8</ele>
        <time>2021-07-07T16:14:32Z</time>
      </trkpt>
      <trkpt lat="43.77424" lon="-1.39655">
        <ele>-13.8</ele>
        <time>2021-07-07T16:14:40Z</time>
      </trkpt>
      <trkpt lat="43.77422" lon="-1.39649">
        <ele>-12.84</ele>
        <time>2021-07-07T16:14:41Z</time>
      </trkpt>
      <trkpt lat="43.77418" lon="-1.39641">
        <ele>-12.84</ele>
        <time>2021-07-07T16:14:42Z</time>
      </trkpt>
      <trkpt lat="43.77415" lon="-1.39636">
        <ele>-11.88</ele>
        <time>2021-07-07T16:14:43Z</time>
      </trkpt>
      <trkpt lat="43.77415" lon="-1.3963">
        <ele>-11.88</ele>
        <time>2021-07-07T16:14:44Z</time>
      </trkpt>
      <trkpt lat="43.77416" lon="-1.39625">
        <ele>-11.4</ele>
        <time>2021-07-07T16:14:45Z</time>
      </trkpt>
      <trkpt lat="43.77427" lon="-1.39608">
        <ele>-10.44</ele>
        <time>2021-07-07T16:14:47Z</time>
      </trkpt>
      <trkpt lat="43.77427" lon="-1.39608">
        <ele>-11.4</ele>
        <time>2021-07-07T16:14:48Z</time>
      </trkpt>
      <trkpt lat="43.77431" lon="-1.39585">
        <ele>-11.4</ele>
        <time>2021-07-07T16:14:49Z</time>
      </trkpt>
      <trkpt lat="43.77431" lon="-1.39585">
        <ele>-11.88</ele>
        <time>2021-07-07T16:14:50Z</time>
      </trkpt>
      <trkpt lat="43.77432" lon="-1.39573">
        <ele>-12.36</ele>
        <time>2021-07-07T16:14:51Z</time>
      </trkpt>
      <trkpt lat="43.77433" lon="-1.39493">
        <ele>-10.92</ele>
        <time>2021-07-07T16:14:59Z</time>
      </trkpt>
      <trkpt lat="43.77433" lon="-1.39482">
        <ele>-10.92</ele>
        <time>2021-07-07T16:15:00Z</time>
      </trkpt>
      <trkpt lat="43.77434" lon="-1.39473">
        <ele>-10.92</ele>
        <time>2021-07-07T16:15:01Z</time>
      </trkpt>
      <trkpt lat="43.77436" lon="-1.39465">
        <ele>-10.92</ele>
        <time>2021-07-07T16:15:02Z</time>
      </trkpt>
      <trkpt lat="43.77441" lon="-1.39458">
        <ele>-10.44</ele>
        <time>2021-07-07T16:15:03Z</time>
      </trkpt>
      <trkpt lat="43.77446" lon="-1.39455">
        <ele>-10.44</ele>
        <time>2021-07-07T16:15:04Z</time>
      </trkpt>
      <trkpt lat="43.77458" lon="-1.39452">
        <ele>-10.44</ele>
        <time>2021-07-07T16:15:05Z</time>
      </trkpt>
      <trkpt lat="43.77465" lon="-1.39453">
        <ele>-10.92</ele>
        <time>2021-07-07T16:15:06Z</time>
      </trkpt>
      <trkpt lat="43.77472" lon="-1.39462">
        <ele>-10.92</ele>
        <time>2021-07-07T16:15:07Z</time>
      </trkpt>
      <trkpt lat="43.77476" lon="-1.3947">
        <ele>-10.44</ele>
        <time>2021-07-07T16:15:08Z</time>
      </trkpt>
      <trkpt lat="43.77476" lon="-1.3947">
        <ele>-10.44</ele>
        <time>2021-07-07T16:15:09Z</time>
      </trkpt>
      <trkpt lat="43.77478" lon="-1.3948">
        <ele>-10.44</ele>
        <time>2021-07-07T16:15:10Z</time>
      </trkpt>
      <trkpt lat="43.77491" lon="-1.39511">
        <ele>-10.44</ele>
        <time>2021-07-07T16:15:12Z</time>
      </trkpt>
      <trkpt lat="43.77491" lon="-1.39511">
        <ele>-10.44</ele>
        <time>2021-07-07T16:15:13Z</time>
      </trkpt>
      <trkpt lat="43.77504" lon="-1.39527">
        <ele>-10.44</ele>
        <time>2021-07-07T16:15:14Z</time>
      </trkpt>
      <trkpt lat="43.77511" lon="-1.39534">
        <ele>-9.96</ele>
        <time>2021-07-07T16:15:15Z</time>
      </trkpt>
      <trkpt lat="43.77511" lon="-1.39534">
        <ele>-9.96</ele>
        <time>2021-07-07T16:15:16Z</time>
      </trkpt>
      <trkpt lat="43.77609" lon="-1.39595">
        <ele>-9.96</ele>
        <time>2021-07-07T16:15:25Z</time>
      </trkpt>
      <trkpt lat="43.77732" lon="-1.39666">
        <ele>-10.44</ele>
        <time>2021-07-07T16:15:35Z</time>
      </trkpt>
      <trkpt lat="43.77859" lon="-1.3974">
        <ele>-11.4</ele>
        <time>2021-07-07T16:15:47Z</time>
      </trkpt>
      <trkpt lat="43.77897" lon="-1.39753">
        <ele>-9.96</ele>
        <time>2021-07-07T16:15:52Z</time>
      </trkpt>
      <trkpt lat="43.77904" lon="-1.39754">
        <ele>-9.48</ele>
        <time>2021-07-07T16:15:53Z</time>
      </trkpt>
      <trkpt lat="43.77906" lon="-1.39754">
        <ele>-9.96</ele>
        <time>2021-07-07T16:15:54Z</time>
      </trkpt>
      <trkpt lat="43.77926" lon="-1.39751">
        <ele>-9.96</ele>
        <time>2021-07-07T16:15:56Z</time>
      </trkpt>
      <trkpt lat="43.77926" lon="-1.39751">
        <ele>-9.96</ele>
        <time>2021-07-07T16:15:57Z</time>
      </trkpt>
      <trkpt lat="43.77932" lon="-1.39754">
        <ele>-9.96</ele>
        <time>2021-07-07T16:15:58Z</time>
      </trkpt>
      <trkpt lat="43.77935" lon="-1.39762">
        <ele>-9.96</ele>
        <time>2021-07-07T16:15:59Z</time>
      </trkpt>
      <trkpt lat="43.77937" lon="-1.39769">
        <ele>-10.44</ele>
        <time>2021-07-07T16:16:00Z</time>
      </trkpt>
      <trkpt lat="43.7794" lon="-1.39776">
        <ele>-10.44</ele>
        <time>2021-07-07T16:16:01Z</time>
      </trkpt>
      <trkpt lat="43.77937" lon="-1.39781">
        <ele>-10.44</ele>
        <time>2021-07-07T16:16:02Z</time>
      </trkpt>
      <trkpt lat="43.77936" lon="-1.39788">
        <ele>-10.92</ele>
        <time>2021-07-07T16:16:03Z</time>
      </trkpt>
      <trkpt lat="43.77932" lon="-1.39794">
        <ele>-11.4</ele>
        <time>2021-07-07T16:16:04Z</time>
      </trkpt>
      <trkpt lat="43.7793" lon="-1.39799">
        <ele>-11.4</ele>
        <time>2021-07-07T16:16:05Z</time>
      </trkpt>
      <trkpt lat="43.77915" lon="-1.39813">
        <ele>-11.4</ele>
        <time>2021-07-07T16:16:06Z</time>
      </trkpt>
      <trkpt lat="43.77915" lon="-1.39813">
        <ele>-11.4</ele>
        <time>2021-07-07T16:16:07Z</time>
      </trkpt>
      <trkpt lat="43.77911" lon="-1.39822">
        <ele>-11.4</ele>
        <time>2021-07-07T16:16:08Z</time>
      </trkpt>
      <trkpt lat="43.77908" lon="-1.39833">
        <ele>-10.92</ele>
        <time>2021-07-07T16:16:09Z</time>
      </trkpt>
      <trkpt lat="43.77907" lon="-1.39843">
        <ele>-10.44</ele>
        <time>2021-07-07T16:16:10Z</time>
      </trkpt>
      <trkpt lat="43.77906" lon="-1.39855">
        <ele>-9.96</ele>
        <time>2021-07-07T16:16:11Z</time>
      </trkpt>
      <trkpt lat="43.77907" lon="-1.4">
        <ele>-6.59</ele>
        <time>2021-07-07T16:16:22Z</time>
      </trkpt>
      <trkpt lat="43.77909" lon="-1.40012">
        <ele>-5.63</ele>
        <time>2021-07-07T16:16:23Z</time>
      </trkpt>
      <trkpt lat="43.77912" lon="-1.40023">
        <ele>-6.59</ele>
        <time>2021-07-07T16:16:24Z</time>
      </trkpt>
      <trkpt lat="43.77915" lon="-1.40035">
        <ele>-7.07</ele>
        <time>2021-07-07T16:16:25Z</time>
      </trkpt>
      <trkpt lat="43.77919" lon="-1.40047">
        <ele>-7.55</ele>
        <time>2021-07-07T16:16:26Z</time>
      </trkpt>
      <trkpt lat="43.77923" lon="-1.40061">
        <ele>-7.55</ele>
        <time>2021-07-07T16:16:27Z</time>
      </trkpt>
      <trkpt lat="43.77928" lon="-1.40069">
        <ele>-8.03</ele>
        <time>2021-07-07T16:16:28Z</time>
      </trkpt>
      <trkpt lat="43.77942" lon="-1.40086">
        <ele>-5.63</ele>
        <time>2021-07-07T16:16:30Z</time>
      </trkpt>
      <trkpt lat="43.77949" lon="-1.40095">
        <ele>-5.63</ele>
        <time>2021-07-07T16:16:31Z</time>
      </trkpt>
      <trkpt lat="43.77957" lon="-1.40105">
        <ele>-6.11</ele>
        <time>2021-07-07T16:16:32Z</time>
      </trkpt>
      <trkpt lat="43.77966" lon="-1.40111">
        <ele>-5.15</ele>
        <time>2021-07-07T16:16:33Z</time>
      </trkpt>
      <trkpt lat="43.77976" lon="-1.40116">
        <ele>-5.15</ele>
        <time>2021-07-07T16:16:34Z</time>
      </trkpt>
      <trkpt lat="43.77989" lon="-1.40122">
        <ele>-5.63</ele>
        <time>2021-07-07T16:16:35Z</time>
      </trkpt>
      <trkpt lat="43.78088" lon="-1.40181">
        <ele>-5.63</ele>
        <time>2021-07-07T16:16:46Z</time>
      </trkpt>
      <trkpt lat="43.78099" lon="-1.40192">
        <ele>-5.15</ele>
        <time>2021-07-07T16:16:48Z</time>
      </trkpt>
      <trkpt lat="43.78104" lon="-1.40197">
        <ele>-6.59</ele>
        <time>2021-07-07T16:16:49Z</time>
      </trkpt>
      <trkpt lat="43.78109" lon="-1.40203">
        <ele>-7.55</ele>
        <time>2021-07-07T16:16:50Z</time>
      </trkpt>
      <trkpt lat="43.78113" lon="-1.40211">
        <ele>-7.55</ele>
        <time>2021-07-07T16:16:51Z</time>
      </trkpt>
      <trkpt lat="43.78117" lon="-1.40216">
        <ele>-8.03</ele>
        <time>2021-07-07T16:16:52Z</time>
      </trkpt>
      <trkpt lat="43.78121" lon="-1.40221">
        <ele>-8.03</ele>
        <time>2021-07-07T16:16:53Z</time>
      </trkpt>
      <trkpt lat="43.78125" lon="-1.40222">
        <ele>-7.55</ele>
        <time>2021-07-07T16:16:54Z</time>
      </trkpt>
      <trkpt lat="43.78171" lon="-1.40229">
        <ele>-6.59</ele>
        <time>2021-07-07T16:17:05Z</time>
      </trkpt>
      <trkpt lat="43.78177" lon="-1.40228">
        <ele>-6.59</ele>
        <time>2021-07-07T16:17:06Z</time>
      </trkpt>
      <trkpt lat="43.78262" lon="-1.40192">
        <ele>-7.07</ele>
        <time>2021-07-07T16:17:16Z</time>
      </trkpt>
      <trkpt lat="43.78419" lon="-1.40143">
        <ele>-7.07</ele>
        <time>2021-07-07T16:17:31Z</time>
      </trkpt>
      <trkpt lat="43.78456" lon="-1.40147">
        <ele>-6.11</ele>
        <time>2021-07-07T16:17:36Z</time>
      </trkpt>
      <trkpt lat="43.78467" lon="-1.40148">
        <ele>-5.63</ele>
        <time>2021-07-07T16:17:37Z</time>
      </trkpt>
      <trkpt lat="43.78476" lon="-1.40152">
        <ele>-4.19</ele>
        <time>2021-07-07T16:17:38Z</time>
      </trkpt>
      <trkpt lat="43.78538" lon="-1.40205">
        <ele>-1.79</ele>
        <time>2021-07-07T16:17:48Z</time>
      </trkpt>
      <trkpt lat="43.78572" lon="-1.4024">
        <ele>-0.82</ele>
        <time>2021-07-07T16:18:01Z</time>
      </trkpt>
      <trkpt lat="43.78603" lon="-1.40271">
        <ele>-0.34</ele>
        <time>2021-07-07T16:18:14Z</time>
      </trkpt>
      <trkpt lat="43.78612" lon="-1.4028">
        <ele>0.14</ele>
        <time>2021-07-07T16:18:29Z</time>
      </trkpt>
    </trkseg>
  </trk>
</gpx>